createdAt,value
2023-05-06T00:00:13.104Z,72.86
2023-05-06T00:01:15.067Z,73.01
2023-05-06T00:02:17.513Z,73.27
2023-05-06T00:03:19.648Z,73.63
2023-05-06T00:04:22.105Z,73.80
2023-05-06T00:05:23.785Z,74.62
2023-05-06T00:06:25.443Z,75.40
2023-05-06T00:07:26.975Z,76.37
2023-05-06T00:08:28.560Z,76.66
2023-05-06T00:09:30.105Z,77.09
2023-05-06T00:10:31.877Z,77.50
2023-05-06T00:11:33.736Z,77.19
2023-05-06T00:12:35.307Z,76.42
2023-05-06T00:13:38.136Z,76.11
2023-05-06T00:14:39.889Z,75.63
2023-05-06T00:15:41.593Z,75.69
2023-05-06T00:16:43.245Z,75.73
2023-05-06T00:17:44.929Z,75.41
2023-05-06T00:18:46.505Z,75.73
2023-05-06T00:19:48.145Z,76.16
2023-05-06T00:20:49.797Z,75.81
2023-05-06T00:21:51.397Z,75.55
2023-05-06T00:22:53.075Z,76.02
2023-05-06T00:23:54.664Z,75.77
2023-05-06T00:24:56.196Z,75.89
2023-05-06T00:25:57.742Z,76.11
2023-05-06T00:26:59.282Z,75.88
2023-05-06T00:28:00.980Z,75.72
2023-05-06T00:29:02.536Z,75.51
2023-05-06T00:30:04.729Z,75.58
2023-05-06T00:31:06.310Z,75.63
2023-05-06T00:32:07.961Z,74.66
2023-05-06T00:33:09.562Z,74.24
2023-05-06T00:34:11.401Z,73.96
2023-05-06T00:35:12.985Z,74.36
2023-05-06T00:36:14.685Z,74.40
2023-05-06T00:37:16.497Z,74.24
2023-05-06T00:38:19.551Z,73.92
2023-05-06T00:39:21.273Z,74.02
2023-05-06T00:40:22.996Z,73.98
2023-05-06T00:41:24.613Z,73.95
2023-05-06T00:42:26.222Z,74.02
2023-05-06T00:43:27.736Z,74.14
2023-05-06T00:44:30.018Z,73.94
2023-05-06T00:45:31.795Z,73.69
2023-05-06T00:46:33.817Z,73.95
2023-05-06T00:47:35.741Z,74.54
2023-05-06T00:48:37.930Z,73.95
2023-05-06T00:49:39.672Z,74.34
2023-05-06T00:50:41.442Z,75.09
2023-05-06T00:51:43.052Z,75.90
2023-05-06T00:52:45.346Z,76.99
2023-05-06T00:53:47.027Z,77.25
2023-05-06T00:54:49.474Z,77.53
2023-05-06T00:55:51.344Z,78.23
2023-05-06T00:56:53.733Z,78.90
2023-05-06T00:57:55.429Z,78.61
2023-05-06T00:58:57.717Z,77.34
2023-05-06T00:59:59.299Z,76.92
2023-05-06T01:01:01.924Z,76.19
2023-05-06T01:02:03.682Z,76.74
2023-05-06T01:03:05.834Z,76.90
2023-05-06T01:04:08.760Z,77.18
2023-05-06T01:05:10.954Z,76.43
2023-05-06T01:06:24.298Z,75.90
2023-05-06T01:07:53.783Z,76.44
2023-05-06T01:09:06.054Z,75.49
2023-05-06T01:10:20.511Z,75.52
2023-05-06T01:11:38.658Z,75.28
2023-05-06T01:12:51.849Z,77.30
2023-05-06T01:14:08.307Z,79.47
2023-05-06T01:15:17.270Z,79.19
2023-05-06T01:16:22.884Z,80.46
2023-05-06T01:17:28.337Z,80.48
2023-05-06T01:18:32.662Z,81.80
2023-05-06T01:19:42.212Z,81.81
2023-05-06T01:20:52.784Z,81.28
2023-05-06T01:21:56.286Z,80.85
2023-05-06T01:22:58.100Z,81.27
2023-05-06T01:24:00.048Z,81.99
2023-05-06T01:25:01.806Z,83.11
2023-05-06T01:26:03.342Z,83.91
2023-05-06T01:27:05.138Z,85.44
2023-05-06T01:28:10.475Z,86.65
2023-05-06T01:29:12.154Z,86.74
2023-05-06T01:30:16.421Z,87.27
2023-05-06T01:31:25.768Z,88.78
2023-05-06T01:32:41.645Z,90.72
2023-05-06T01:33:43.364Z,90.66
2023-05-06T01:35:07.342Z,88.43
2023-05-06T01:36:38.893Z,89.54
2023-05-06T01:38:14.094Z,89.72
2023-05-06T01:39:24.455Z,90.01
2023-05-06T01:40:28.402Z,90.80
2023-05-06T01:41:34.019Z,90.05
2023-05-06T01:42:38.997Z,88.70
2023-05-06T01:43:43.034Z,89.47
2023-05-06T01:44:44.873Z,88.46
2023-05-06T01:45:53.226Z,88.37
2023-05-06T01:46:56.386Z,88.21
2023-05-06T01:47:59.327Z,87.96
2023-05-06T01:49:04.840Z,88.02
2023-05-06T01:50:06.956Z,88.16
2023-05-06T01:51:08.667Z,88.03
2023-05-06T01:52:10.214Z,86.60
2023-05-06T01:53:11.787Z,86.69
2023-05-06T01:54:13.469Z,86.34
2023-05-06T01:55:15.006Z,85.49
2023-05-06T01:56:16.994Z,85.84
2023-05-06T01:57:18.584Z,85.43
2023-05-06T01:58:20.396Z,83.41
2023-05-06T01:59:22.035Z,83.45
2023-05-06T02:00:25.006Z,82.52
2023-05-06T02:01:26.767Z,81.79
2023-05-06T02:02:28.514Z,81.60
2023-05-06T02:03:30.466Z,80.75
2023-05-06T02:04:32.352Z,80.04
2023-05-06T02:05:34.003Z,79.62
2023-05-06T02:06:35.693Z,79.71
2023-05-06T02:07:37.228Z,80.04
2023-05-06T02:08:40.285Z,80.23
2023-05-06T02:09:41.813Z,80.44
2023-05-06T02:10:43.386Z,80.09
2023-05-06T02:11:44.986Z,79.28
2023-05-06T02:12:46.552Z,78.62
2023-05-06T02:13:48.166Z,78.13
2023-05-06T02:14:49.725Z,78.29
2023-05-06T02:15:54.784Z,78.54
2023-05-06T02:16:56.503Z,79.21
2023-05-06T02:17:59.950Z,78.75
2023-05-06T02:19:01.664Z,79.17
2023-05-06T02:20:03.728Z,79.56
2023-05-06T02:21:05.270Z,79.07
2023-05-06T02:22:06.984Z,78.95
2023-05-06T02:23:08.592Z,79.31
2023-05-06T02:24:10.190Z,79.19
2023-05-06T02:25:11.825Z,79.51
2023-05-06T02:26:13.404Z,79.16
2023-05-06T02:27:14.920Z,78.89
2023-05-06T02:28:16.444Z,79.24
2023-05-06T02:29:18.027Z,80.35
2023-05-06T02:30:19.603Z,79.68
2023-05-06T02:31:21.225Z,79.95
2023-05-06T02:32:22.878Z,80.36
2023-05-06T02:33:24.959Z,80.06
2023-05-06T02:34:26.507Z,80.22
2023-05-06T02:35:28.016Z,80.65
2023-05-06T02:36:29.652Z,80.00
2023-05-06T02:37:31.263Z,80.93
2023-05-06T02:38:32.804Z,81.53
2023-05-06T02:39:34.357Z,81.44
2023-05-06T02:40:35.934Z,81.40
2023-05-06T02:41:37.434Z,83.06
2023-05-06T02:42:39.066Z,82.63
2023-05-06T02:43:40.712Z,83.33
2023-05-06T02:44:42.497Z,82.79
2023-05-06T02:45:44.069Z,83.14
2023-05-06T02:46:45.699Z,83.65
2023-05-06T02:47:47.294Z,83.52
2023-05-06T02:48:48.940Z,83.23
2023-05-06T02:49:50.684Z,82.95
2023-05-06T02:50:52.406Z,82.42
2023-05-06T02:51:53.965Z,82.63
2023-05-06T02:52:55.785Z,81.97
2023-05-06T02:53:57.361Z,82.20
2023-05-06T02:54:59.161Z,81.32
2023-05-06T02:56:00.730Z,81.92
2023-05-06T02:57:02.368Z,82.30
2023-05-06T02:58:03.895Z,82.06
2023-05-06T02:59:05.915Z,81.89
2023-05-06T03:00:11.011Z,81.26
2023-05-06T03:01:12.632Z,80.49
2023-05-06T03:02:14.253Z,81.04
2023-05-06T03:03:17.933Z,80.91
2023-05-06T03:04:19.515Z,80.69
2023-05-06T03:05:21.263Z,81.84
2023-05-06T03:06:22.787Z,82.88
2023-05-06T03:07:24.331Z,83.46
2023-05-06T03:08:25.876Z,82.37
2023-05-06T03:09:27.460Z,82.17
2023-05-06T03:10:29.014Z,81.00
2023-05-06T03:11:31.570Z,80.94
2023-05-06T03:12:33.177Z,80.47
2023-05-06T03:13:34.804Z,79.96
2023-05-06T03:14:36.370Z,80.08
2023-05-06T03:15:37.913Z,80.14
2023-05-06T03:16:39.551Z,80.59
2023-05-06T03:17:41.170Z,81.30
2023-05-06T03:18:42.718Z,81.81
2023-05-06T03:19:44.298Z,83.01
2023-05-06T03:20:48.280Z,83.04
2023-05-06T03:21:49.882Z,83.17
2023-05-06T03:22:51.714Z,82.18
2023-05-06T03:23:53.220Z,82.18
2023-05-06T03:24:54.775Z,82.15
2023-05-06T03:25:56.291Z,81.32
2023-05-06T03:26:58.527Z,80.52
2023-05-06T03:28:00.345Z,80.49
2023-05-06T03:29:01.947Z,79.61
2023-05-06T03:30:05.029Z,80.01
2023-05-06T03:31:06.699Z,79.27
2023-05-06T03:32:08.365Z,79.33
2023-05-06T03:33:10.028Z,79.59
2023-05-06T03:34:11.569Z,79.24
2023-05-06T03:35:13.229Z,79.42
2023-05-06T03:36:14.793Z,78.77
2023-05-06T03:37:16.355Z,78.43
2023-05-06T03:38:17.879Z,79.00
2023-05-06T03:39:19.428Z,78.94
2023-05-06T03:40:21.061Z,80.63
2023-05-06T03:41:24.451Z,80.04
2023-05-06T03:42:26.072Z,79.35
2023-05-06T03:43:27.643Z,79.63
2023-05-06T03:44:29.263Z,79.14
2023-05-06T03:45:30.916Z,79.68
2023-05-06T03:46:32.856Z,78.19
2023-05-06T03:47:34.590Z,78.10
2023-05-06T03:48:36.194Z,78.59
2023-05-06T03:49:37.781Z,78.68
2023-05-06T03:50:39.481Z,78.28
2023-05-06T03:51:41.289Z,78.46
2023-05-06T03:52:42.960Z,78.63
2023-05-06T03:53:44.775Z,78.26
2023-05-06T03:54:46.321Z,79.19
2023-05-06T03:55:48.191Z,79.11
2023-05-06T03:56:49.748Z,79.49
2023-05-06T03:57:51.323Z,79.98
2023-05-06T03:58:54.346Z,79.63
2023-05-06T03:59:56.066Z,81.04
2023-05-06T04:01:00.064Z,81.14
2023-05-06T04:02:01.747Z,82.09
2023-05-06T04:03:03.553Z,83.45
2023-05-06T04:04:05.397Z,84.13
2023-05-06T04:05:07.714Z,84.01
2023-05-06T04:06:09.468Z,84.88
2023-05-06T04:07:11.078Z,86.24
2023-05-06T04:08:12.640Z,86.83
2023-05-06T04:09:14.183Z,87.39
2023-05-06T04:10:15.884Z,88.31
2023-05-06T04:11:17.457Z,88.89
2023-05-06T04:12:19.076Z,90.42
2023-05-06T04:13:20.841Z,89.71
2023-05-06T04:14:22.523Z,90.16
2023-05-06T04:15:24.199Z,88.65
2023-05-06T04:16:26.563Z,88.20
2023-05-06T04:17:28.293Z,88.62
2023-05-06T04:18:30.594Z,88.16
2023-05-06T04:19:33.583Z,87.86
2023-05-06T04:20:35.131Z,87.86
2023-05-06T04:21:36.737Z,88.28
2023-05-06T04:22:38.772Z,86.67
2023-05-06T04:23:41.565Z,86.18
2023-05-06T04:24:45.723Z,85.76
2023-05-06T04:25:50.534Z,86.22
2023-05-06T04:26:52.066Z,85.30
2023-05-06T04:27:53.640Z,85.18
2023-05-06T04:28:55.877Z,85.33
2023-05-06T04:29:57.810Z,85.03
2023-05-06T04:30:59.384Z,84.25
2023-05-06T04:32:01.273Z,84.04
2023-05-06T04:33:04.164Z,84.04
2023-05-06T04:34:05.797Z,83.25
2023-05-06T04:35:08.131Z,82.51
2023-05-06T04:36:09.825Z,82.50
2023-05-06T04:37:11.392Z,81.04
2023-05-06T04:38:14.962Z,81.34
2023-05-06T04:39:18.115Z,80.62
2023-05-06T04:40:19.812Z,80.48
2023-05-06T04:41:22.239Z,80.26
2023-05-06T04:42:23.912Z,79.39
2023-05-06T04:43:28.296Z,78.84
2023-05-06T04:44:29.895Z,78.89
2023-05-06T04:45:32.561Z,78.19
2023-05-06T04:46:34.153Z,77.81
2023-05-06T04:47:36.078Z,77.59
2023-05-06T04:48:38.036Z,76.07
2023-05-06T04:49:40.009Z,75.20
2023-05-06T04:50:41.553Z,74.79
2023-05-06T04:51:43.096Z,74.40
2023-05-06T04:52:44.646Z,73.86
2023-05-06T04:53:46.773Z,73.04
2023-05-06T04:54:48.359Z,72.14
2023-05-06T04:55:49.882Z,71.44
2023-05-06T04:56:51.435Z,71.18
2023-05-06T04:57:52.963Z,71.63
2023-05-06T04:58:54.517Z,70.91
2023-05-06T04:59:56.023Z,70.69
2023-05-06T05:00:58.061Z,68.85
2023-05-06T05:01:59.699Z,67.99
2023-05-06T05:03:02.196Z,68.02
2023-05-06T05:04:03.949Z,67.39
2023-05-06T05:05:05.917Z,66.72
2023-05-06T05:06:07.629Z,66.39
2023-05-06T05:07:09.266Z,65.78
2023-05-06T05:08:13.304Z,65.17
2023-05-06T05:09:14.937Z,65.04
2023-05-06T05:10:16.580Z,64.73
2023-05-06T05:11:18.090Z,63.60
2023-05-06T05:12:19.645Z,63.76
2023-05-06T05:13:21.585Z,63.75
2023-05-06T05:14:23.173Z,63.53
2023-05-06T05:15:25.228Z,62.57
2023-05-06T05:16:26.933Z,62.08
2023-05-06T05:17:28.771Z,63.04
2023-05-06T05:18:30.283Z,62.25
2023-05-06T05:19:31.841Z,62.22
2023-05-06T05:20:33.376Z,60.91
2023-05-06T05:21:35.200Z,61.20
2023-05-06T05:22:37.304Z,60.98
2023-05-06T05:23:38.818Z,59.61
2023-05-06T05:24:40.483Z,58.04
2023-05-06T05:25:42.025Z,58.69
2023-05-06T05:26:43.626Z,57.62
2023-05-06T05:27:45.418Z,57.86
2023-05-06T05:28:47.020Z,57.25
2023-05-06T05:29:48.827Z,57.02
2023-05-06T05:30:50.550Z,58.32
2023-05-06T05:31:52.180Z,57.06
2023-05-06T05:32:53.871Z,57.05
2023-05-06T05:33:55.500Z,56.63
2023-05-06T05:34:57.306Z,57.13
2023-05-06T05:35:58.968Z,58.16
2023-05-06T05:37:00.589Z,59.50
2023-05-06T05:38:02.151Z,58.76
2023-05-06T05:39:03.988Z,58.72
2023-05-06T05:40:06.408Z,58.15
2023-05-06T05:41:07.970Z,57.60
2023-05-06T05:42:09.562Z,56.78
2023-05-06T05:43:11.198Z,57.02
2023-05-06T05:44:12.739Z,57.07
2023-05-06T05:45:14.404Z,57.32
2023-05-06T05:46:16.877Z,57.02
2023-05-06T05:47:18.553Z,56.82
2023-05-06T05:48:20.144Z,56.40
2023-05-06T05:49:21.742Z,55.99
2023-05-06T05:50:23.479Z,55.98
2023-05-06T05:51:25.073Z,55.20
2023-05-06T05:52:26.743Z,55.08
2023-05-06T05:53:28.633Z,55.66
2023-05-06T05:54:30.202Z,56.49
2023-05-06T05:55:32.098Z,56.59
2023-05-06T05:56:33.653Z,56.50
2023-05-06T05:57:35.436Z,55.50
2023-05-06T05:58:36.983Z,55.61
2023-05-06T05:59:38.522Z,55.70
2023-05-06T06:00:40.149Z,55.60
2023-05-06T06:01:41.684Z,56.33
2023-05-06T06:02:43.291Z,56.53
2023-05-06T06:03:45.029Z,55.24
2023-05-06T06:04:46.736Z,55.97
2023-05-06T06:05:49.485Z,55.27
2023-05-06T06:06:51.490Z,54.44
2023-05-06T06:07:53.104Z,55.34
2023-05-06T06:08:55.122Z,54.60
2023-05-06T06:09:56.682Z,54.47
2023-05-06T06:10:58.203Z,54.29
2023-05-06T06:11:59.764Z,54.24
2023-05-06T06:13:01.400Z,53.59
2023-05-06T06:14:02.960Z,53.57
2023-05-06T06:15:04.758Z,53.15
2023-05-06T06:16:06.775Z,53.70
2023-05-06T06:17:08.421Z,54.13
2023-05-06T06:18:10.162Z,55.05
2023-05-06T06:19:11.793Z,55.06
2023-05-06T06:20:13.782Z,55.71
2023-05-06T06:21:15.354Z,55.28
2023-05-06T06:22:17.132Z,55.81
2023-05-06T06:23:21.457Z,55.75
2023-05-06T06:24:22.970Z,56.48
2023-05-06T06:25:24.587Z,57.43
2023-05-06T06:26:26.617Z,57.79
2023-05-06T06:27:28.653Z,58.41
2023-05-06T06:28:30.382Z,57.83
2023-05-06T06:29:31.901Z,58.22
2023-05-06T06:30:33.720Z,59.06
2023-05-06T06:31:35.905Z,58.99
2023-05-06T06:32:48.378Z,58.78
2023-05-06T06:33:50.222Z,59.06
2023-05-06T06:34:51.739Z,58.70
2023-05-06T06:35:53.282Z,59.42
2023-05-06T06:36:54.859Z,59.20
2023-05-06T06:37:56.429Z,60.01
2023-05-06T06:38:57.967Z,58.62
2023-05-06T06:39:59.491Z,60.20
2023-05-06T06:41:01.026Z,59.36
2023-05-06T06:42:06.961Z,60.82
2023-05-06T06:43:08.606Z,61.31
2023-05-06T06:44:10.144Z,60.12
2023-05-06T06:45:13.476Z,61.62
2023-05-06T06:46:15.131Z,60.86
2023-05-06T06:47:16.843Z,61.40
2023-05-06T06:48:19.293Z,60.89
2023-05-06T06:49:20.965Z,60.49
2023-05-06T06:50:22.519Z,62.47
2023-05-06T06:51:24.047Z,61.06
2023-05-06T06:52:25.650Z,61.92
2023-05-06T06:53:27.183Z,62.74
2023-05-06T06:54:28.695Z,61.97
2023-05-06T06:55:30.394Z,61.50
2023-05-06T06:56:31.961Z,60.54
2023-05-06T06:57:33.546Z,59.58
2023-05-06T06:58:35.108Z,60.08
2023-05-06T06:59:36.684Z,58.86
2023-05-06T07:00:38.556Z,58.83
2023-05-06T07:01:42.075Z,60.04
2023-05-06T07:02:43.763Z,58.56
2023-05-06T07:03:45.350Z,58.43
2023-05-06T07:04:47.034Z,58.91
2023-05-06T07:05:49.362Z,61.19
2023-05-06T07:06:51.295Z,58.66
2023-05-06T07:07:53.239Z,58.73
2023-05-06T07:08:54.764Z,58.28
2023-05-06T07:09:57.740Z,58.03
2023-05-06T07:10:59.646Z,57.93
2023-05-06T07:12:01.896Z,57.63
2023-05-06T07:13:03.712Z,58.33
2023-05-06T07:14:05.394Z,57.68
2023-05-06T07:15:07.573Z,57.81
2023-05-06T07:16:09.433Z,57.95
2023-05-06T07:17:11.220Z,57.46
2023-05-06T07:18:13.027Z,56.31
2023-05-06T07:19:14.709Z,56.98
2023-05-06T07:20:16.378Z,55.63
2023-05-06T07:21:17.975Z,55.39
2023-05-06T07:22:19.560Z,55.91
2023-05-06T07:23:21.181Z,54.75
2023-05-06T07:24:23.087Z,55.54
2023-05-06T07:25:25.594Z,55.24
2023-05-06T07:26:27.396Z,54.86
2023-05-06T07:27:30.793Z,56.14
2023-05-06T07:28:32.377Z,54.79
2023-05-06T07:29:36.563Z,56.13
2023-05-06T07:30:38.996Z,55.20
2023-05-06T07:31:40.558Z,54.74
2023-05-06T07:32:43.428Z,56.63
2023-05-06T07:33:44.997Z,54.38
2023-05-06T07:34:46.520Z,54.59
2023-05-06T07:35:48.049Z,55.44
2023-05-06T07:36:50.565Z,54.49
2023-05-06T07:37:52.630Z,54.40
2023-05-06T07:38:54.390Z,54.83
2023-05-06T07:39:57.505Z,55.13
2023-05-06T07:40:59.092Z,54.05
2023-05-06T07:42:01.895Z,52.49
2023-05-06T07:43:03.719Z,51.47
2023-05-06T07:44:06.145Z,52.61
2023-05-06T07:45:08.282Z,52.88
2023-05-06T07:46:10.244Z,51.76
2023-05-06T07:47:11.924Z,52.46
2023-05-06T07:48:13.519Z,52.27
2023-05-06T07:49:15.148Z,50.43
2023-05-06T07:50:16.888Z,50.19
2023-05-06T07:51:19.359Z,52.24
2023-05-06T07:52:21.067Z,51.05
2023-05-06T07:53:22.849Z,51.33
2023-05-06T07:54:24.409Z,51.73
2023-05-06T07:55:26.396Z,51.11
2023-05-06T07:56:27.952Z,49.77
2023-05-06T07:57:29.634Z,52.06
2023-05-06T07:58:32.025Z,50.68
2023-05-06T07:59:33.599Z,51.29
2023-05-06T08:00:35.155Z,50.41
2023-05-06T08:01:36.763Z,51.75
2023-05-06T08:02:39.483Z,51.79
2023-05-06T08:03:41.127Z,51.49
2023-05-06T08:04:43.204Z,51.30
2023-05-06T08:05:44.976Z,51.16
2023-05-06T08:06:46.539Z,50.23
2023-05-06T08:07:50.145Z,50.90
2023-05-06T08:08:51.750Z,48.77
2023-05-06T08:09:53.299Z,47.38
2023-05-06T08:10:58.874Z,49.27
2023-05-06T08:12:00.438Z,49.59
2023-05-06T08:13:02.049Z,50.37
2023-05-06T08:14:03.629Z,49.64
2023-05-06T08:15:05.769Z,48.25
2023-05-06T08:16:07.817Z,47.95
2023-05-06T08:17:09.456Z,47.43
2023-05-06T08:18:21.664Z,48.13
2023-05-06T08:19:24.690Z,45.84
2023-05-06T08:20:26.252Z,45.34
2023-05-06T08:21:27.864Z,44.43
2023-05-06T08:22:29.494Z,45.79
2023-05-06T08:23:32.167Z,45.03
2023-05-06T08:24:33.721Z,44.71
2023-05-06T08:25:35.333Z,44.72
2023-05-06T08:26:37.007Z,47.14
2023-05-06T08:27:38.661Z,45.52
2023-05-06T08:28:40.349Z,43.79
2023-05-06T08:29:41.910Z,44.06
2023-05-06T08:30:44.751Z,43.41
2023-05-06T08:31:47.292Z,44.18
2023-05-06T08:32:48.970Z,45.37
2023-05-06T08:33:53.891Z,44.54
2023-05-06T08:34:56.138Z,44.80
2023-05-06T08:35:58.895Z,43.87
2023-05-06T08:37:01.199Z,44.17
2023-05-06T08:38:02.990Z,44.60
2023-05-06T08:39:04.615Z,44.91
2023-05-06T08:40:19.479Z,45.57
2023-05-06T08:41:21.969Z,45.01
2023-05-06T08:42:25.585Z,44.71
2023-05-06T08:43:28.794Z,45.35
2023-05-06T08:44:30.573Z,42.86
2023-05-06T08:45:33.051Z,43.05
2023-05-06T08:46:34.814Z,43.04
2023-05-06T08:47:36.454Z,43.33
2023-05-06T08:48:38.595Z,41.74
2023-05-06T08:49:40.139Z,43.26
2023-05-06T08:50:43.372Z,44.39
2023-05-06T08:51:45.127Z,43.71
2023-05-06T08:52:47.953Z,43.98
2023-05-06T08:53:51.736Z,44.46
2023-05-06T08:54:57.982Z,44.67
2023-05-06T08:56:08.791Z,43.65
2023-05-06T08:57:12.925Z,42.71
2023-05-06T08:58:16.900Z,43.77
2023-05-06T08:59:22.994Z,43.96
2023-05-06T09:00:24.820Z,42.45
2023-05-06T09:01:28.088Z,41.60
2023-05-06T09:02:29.861Z,41.38
2023-05-06T09:03:31.805Z,41.14
2023-05-06T09:04:34.176Z,40.75
2023-05-06T09:05:36.080Z,41.52
2023-05-06T09:06:37.717Z,41.39
2023-05-06T09:07:39.301Z,42.46
2023-05-06T09:08:41.077Z,43.22
2023-05-06T09:09:42.586Z,41.83
2023-05-06T09:10:45.412Z,42.29
2023-05-06T09:11:54.039Z,41.70
2023-05-06T09:12:56.922Z,40.60
2023-05-06T09:14:13.307Z,39.95
2023-05-06T09:15:14.829Z,40.49
2023-05-06T09:16:29.777Z,40.79
2023-05-06T09:17:32.727Z,40.74
2023-05-06T09:18:37.222Z,41.19
2023-05-06T09:19:38.741Z,41.78
2023-05-06T09:20:44.852Z,43.25
2023-05-06T09:21:49.379Z,41.77
2023-05-06T09:22:51.686Z,41.39
2023-05-06T09:23:53.409Z,41.40
2023-05-06T09:24:58.023Z,41.32
2023-05-06T09:26:01.752Z,42.18
2023-05-06T09:27:04.004Z,40.52
2023-05-06T09:28:11.291Z,39.78
2023-05-06T09:29:13.256Z,40.04
2023-05-06T09:30:15.232Z,40.87
2023-05-06T09:31:16.962Z,38.62
2023-05-06T09:32:18.742Z,42.88
2023-05-06T09:33:21.728Z,40.34
2023-05-06T09:34:24.642Z,42.13
2023-05-06T09:35:29.227Z,42.01
2023-05-06T09:36:31.527Z,41.67
2023-05-06T09:37:33.110Z,40.55
2023-05-06T09:38:34.684Z,39.49
2023-05-06T09:39:36.344Z,39.29
2023-05-06T09:40:39.062Z,39.40
2023-05-06T09:41:40.809Z,39.52
2023-05-06T09:42:43.791Z,40.28
2023-05-06T09:43:46.232Z,39.39
2023-05-06T09:44:48.006Z,39.92
2023-05-06T09:45:49.658Z,39.91
2023-05-06T09:46:51.302Z,39.57
2023-05-06T09:47:53.966Z,38.04
2023-05-06T09:48:57.536Z,38.14
2023-05-06T09:50:02.298Z,38.51
2023-05-06T09:51:05.066Z,37.83
2023-05-06T09:52:07.478Z,38.44
2023-05-06T09:53:11.764Z,39.05
2023-05-06T09:54:15.559Z,39.53
2023-05-06T09:55:19.554Z,40.33
2023-05-06T09:56:21.566Z,39.41
2023-05-06T09:57:23.885Z,39.35
2023-05-06T09:58:26.493Z,39.50
2023-05-06T09:59:29.402Z,38.50
2023-05-06T10:00:32.429Z,38.41
2023-05-06T10:01:37.656Z,37.64
2023-05-06T10:02:44.812Z,38.00
2023-05-06T10:03:48.283Z,38.22
2023-05-06T10:04:50.482Z,38.63
2023-05-06T10:05:54.562Z,38.14
2023-05-06T10:06:56.742Z,38.84
2023-05-06T10:07:59.309Z,38.31
2023-05-06T10:09:01.884Z,38.51
2023-05-06T10:10:04.593Z,38.94
2023-05-06T10:11:07.000Z,39.58
2023-05-06T10:12:09.550Z,41.29
2023-05-06T10:13:12.170Z,39.71
2023-05-06T10:14:14.438Z,38.81
2023-05-06T10:15:16.261Z,38.68
2023-05-06T10:16:19.266Z,40.02
2023-05-06T10:17:24.689Z,39.43
2023-05-06T10:18:29.845Z,38.86
2023-05-06T10:19:33.183Z,39.19
2023-05-06T10:20:36.096Z,39.38
2023-05-06T10:21:44.893Z,40.58
2023-05-06T10:23:07.710Z,38.45
2023-05-06T10:24:13.419Z,39.30
2023-05-06T10:25:30.058Z,39.35
2023-05-06T10:26:36.184Z,39.78
2023-05-06T10:27:41.779Z,39.43
2023-05-06T10:28:46.813Z,37.81
2023-05-06T10:29:49.006Z,38.73
2023-05-06T10:30:52.098Z,37.35
2023-05-06T10:31:55.673Z,37.02
2023-05-06T10:33:03.544Z,36.73
2023-05-06T10:34:07.710Z,38.33
2023-05-06T10:35:15.028Z,39.03
2023-05-06T10:36:22.687Z,39.43
2023-05-06T10:37:28.654Z,38.70
2023-05-06T10:38:36.229Z,37.21
2023-05-06T10:39:39.261Z,38.42
2023-05-06T10:40:43.474Z,39.27
2023-05-06T10:41:45.435Z,38.02
2023-05-06T10:42:47.024Z,37.96
2023-05-06T10:43:49.895Z,38.11
2023-05-06T10:45:01.793Z,38.04
2023-05-06T10:46:16.607Z,37.87
2023-05-06T10:47:18.227Z,36.85
2023-05-06T10:48:19.785Z,37.52
2023-05-06T10:49:21.414Z,37.54
2023-05-06T10:50:24.509Z,37.82
2023-05-06T10:51:28.310Z,37.05
2023-05-06T10:52:44.435Z,37.18
2023-05-06T10:54:04.313Z,36.77
2023-05-06T10:55:42.539Z,36.49
2023-05-06T10:56:47.023Z,35.12
2023-05-06T10:57:49.320Z,36.81
2023-05-06T10:58:51.682Z,36.94
2023-05-06T10:59:55.534Z,37.61
2023-05-06T11:00:58.036Z,37.35
2023-05-06T11:02:02.725Z,39.23
2023-05-06T11:03:10.293Z,38.98
2023-05-06T11:04:13.958Z,38.03
2023-05-06T11:05:15.949Z,37.45
2023-05-06T11:06:42.650Z,38.11
2023-05-06T11:07:44.272Z,37.89
2023-05-06T11:08:57.210Z,38.11
2023-05-06T11:10:00.901Z,37.02
2023-05-06T11:11:30.814Z,37.03
2023-05-06T11:12:52.524Z,38.00
2023-05-06T11:13:54.340Z,37.97
2023-05-06T11:15:19.454Z,36.98
2023-05-06T11:16:50.074Z,37.46
2023-05-06T11:17:53.828Z,37.94
2023-05-06T11:18:55.803Z,37.11
2023-05-06T11:20:19.861Z,37.87
2023-05-06T11:21:21.375Z,37.45
2023-05-06T11:22:40.242Z,37.14
2023-05-06T11:23:46.642Z,37.41
2023-05-06T11:24:48.248Z,38.86
2023-05-06T11:25:51.290Z,38.94
2023-05-06T11:26:53.969Z,38.34
2023-05-06T11:27:56.204Z,38.90
2023-05-06T11:29:02.200Z,38.04
2023-05-06T11:30:05.330Z,37.59
2023-05-06T11:31:08.240Z,37.85
2023-05-06T11:32:23.620Z,38.84
2023-05-06T11:33:30.797Z,38.62
2023-05-06T11:34:33.082Z,38.12
2023-05-06T11:35:38.143Z,38.12
2023-05-06T11:36:47.024Z,38.12
2023-05-06T11:37:48.555Z,38.08
2023-05-06T11:38:52.419Z,38.47
2023-05-06T11:39:54.202Z,36.85
2023-05-06T11:40:55.751Z,36.68
2023-05-06T11:42:03.918Z,37.92
2023-05-06T11:43:12.548Z,37.38
2023-05-06T11:44:27.678Z,37.36
2023-05-06T11:45:41.102Z,37.26
2023-05-06T11:46:43.866Z,36.93
2023-05-06T11:47:45.664Z,36.32
2023-05-06T11:48:47.828Z,36.58
2023-05-06T11:49:54.313Z,37.16
2023-05-06T11:50:55.854Z,37.09
2023-05-06T11:51:57.487Z,37.13
2023-05-06T11:52:59.074Z,37.70
2023-05-06T11:54:07.086Z,36.73
2023-05-06T11:55:10.107Z,36.69
2023-05-06T11:56:12.049Z,36.67
2023-05-06T11:57:14.014Z,37.76
2023-05-06T11:58:17.513Z,38.03
2023-05-06T11:59:48.128Z,35.97
2023-05-06T12:00:53.003Z,37.39
2023-05-06T12:01:56.334Z,37.57
2023-05-06T12:02:58.825Z,36.94
2023-05-06T12:04:02.155Z,37.02
2023-05-06T12:05:04.217Z,36.27
2023-05-06T12:06:06.101Z,35.94
2023-05-06T12:07:09.747Z,35.54
2023-05-06T12:08:20.032Z,35.62
2023-05-06T12:09:28.763Z,36.28
2023-05-06T12:10:30.331Z,37.27
2023-05-06T12:11:33.759Z,38.39
2023-05-06T12:12:35.552Z,37.38
2023-05-06T12:13:37.799Z,38.72
2023-05-06T12:14:40.214Z,37.49
2023-05-06T12:15:42.745Z,37.85
2023-05-06T12:16:44.628Z,37.52
2023-05-06T12:17:46.478Z,36.89
2023-05-06T12:18:48.370Z,37.65
2023-05-06T12:19:50.512Z,37.35
2023-05-06T12:20:56.249Z,37.31
2023-05-06T12:22:14.959Z,36.63
2023-05-06T12:23:16.919Z,37.33
2023-05-06T12:24:28.234Z,35.53
2023-05-06T12:25:29.868Z,35.22
2023-05-06T12:26:43.481Z,35.53
2023-05-06T12:27:45.592Z,35.63
2023-05-06T12:28:47.297Z,34.61
2023-05-06T12:29:53.425Z,34.54
2023-05-06T12:30:54.967Z,33.92
2023-05-06T12:32:12.737Z,35.01
2023-05-06T12:33:14.298Z,36.13
2023-05-06T12:34:18.212Z,34.82
2023-05-06T12:35:30.542Z,34.58
2023-05-06T12:36:35.138Z,35.67
2023-05-06T12:37:36.731Z,35.61
2023-05-06T12:38:38.370Z,35.58
2023-05-06T12:39:40.860Z,35.17
2023-05-06T12:40:45.026Z,34.91
2023-05-06T12:41:46.883Z,35.77
2023-05-06T12:42:57.537Z,36.88
2023-05-06T12:43:59.068Z,36.56
2023-05-06T12:45:15.943Z,36.17
2023-05-06T12:46:17.618Z,35.17
2023-05-06T12:47:21.672Z,35.03
2023-05-06T12:48:23.185Z,35.26
2023-05-06T12:49:24.728Z,35.72
2023-05-06T12:50:43.350Z,35.01
2023-05-06T12:51:46.994Z,36.77
2023-05-06T12:52:49.204Z,36.58
2023-05-06T12:53:51.371Z,37.28
2023-05-06T12:54:53.161Z,35.99
2023-05-06T12:55:54.763Z,35.71
2023-05-06T12:56:56.397Z,35.75
2023-05-06T12:57:58.397Z,35.23
2023-05-06T12:59:01.992Z,35.44
2023-05-06T13:00:03.891Z,35.17
2023-05-06T13:01:07.604Z,35.66
2023-05-06T13:02:09.828Z,35.71
2023-05-06T13:03:11.707Z,34.68
2023-05-06T13:04:13.287Z,35.23
2023-05-06T13:05:15.126Z,35.38
2023-05-06T13:06:16.625Z,36.00
2023-05-06T13:07:18.153Z,35.39
2023-05-06T13:08:19.704Z,36.04
2023-05-06T13:09:21.559Z,36.03
2023-05-06T13:10:23.147Z,36.17
2023-05-06T13:11:25.770Z,35.38
2023-05-06T13:12:27.299Z,35.20
2023-05-06T13:13:28.848Z,34.55
2023-05-06T13:14:30.502Z,35.06
2023-05-06T13:15:32.276Z,35.52
2023-05-06T13:16:35.391Z,35.88
2023-05-06T13:17:37.035Z,35.18
2023-05-06T13:18:38.985Z,35.49
2023-05-06T13:19:40.570Z,35.48
2023-05-06T13:20:42.300Z,35.53
2023-05-06T13:21:44.282Z,37.09
2023-05-06T13:22:54.243Z,36.83
2023-05-06T13:23:56.560Z,36.21
2023-05-06T13:24:58.120Z,35.85
2023-05-06T13:26:05.383Z,37.68
2023-05-06T13:27:07.468Z,36.57
2023-05-06T13:28:09.899Z,37.35
2023-05-06T13:29:11.644Z,36.83
2023-05-06T13:30:13.541Z,36.87
2023-05-06T13:31:15.356Z,35.25
2023-05-06T13:32:16.957Z,35.75
2023-05-06T13:33:18.645Z,35.73
2023-05-06T13:34:20.318Z,35.16
2023-05-06T13:35:21.886Z,35.41